sensor_id;sensor_type;location;lat;lon;timestamp;temperature;humidity
72338;DHT22;60294;64.134;-21.862;2022-09-16T00:02:18;5.50;80.70
72338;DHT22;60294;64.134;-21.862;2022-09-16T00:04:43;5.40;80.70
72338;DHT22;60294;64.134;-21.862;2022-09-16T00:07:09;5.40;80.70
72338;DHT22;60294;64.134;-21.862;2022-09-16T00:09:36;5.30;81.00
72338;DHT22;60294;64.134;-21.862;2022-09-16T00:12:06;5.40;80.90
72338;DHT22;60294;64.134;-21.862;2022-09-16T00:14:32;5.30;80.80
72338;DHT22;60294;64.134;-21.862;2022-09-16T00:16:58;5.30;80.70
72338;DHT22;60294;64.134;-21.862;2022-09-16T00:19:24;5.30;80.80
72338;DHT22;60294;64.134;-21.862;2022-09-16T00:21:50;5.30;80.80
72338;DHT22;60294;64.134;-21.862;2022-09-16T00:24:16;5.30;80.50
72338;DHT22;60294;64.134;-21.862;2022-09-16T00:26:42;5.30;80.50
72338;DHT22;60294;64.134;-21.862;2022-09-16T00:29:08;5.30;80.50
72338;DHT22;60294;64.134;-21.862;2022-09-16T00:31:34;5.30;80.10
72338;DHT22;60294;64.134;-21.862;2022-09-16T00:34:01;5.30;80.00
72338;DHT22;60294;64.134;-21.862;2022-09-16T00:36:27;5.20;80.30
72338;DHT22;60294;64.134;-21.862;2022-09-16T00:38:53;5.10;80.70
72338;DHT22;60294;64.134;-21.862;2022-09-16T00:41:26;5.20;80.20
72338;DHT22;60294;64.134;-21.862;2022-09-16T00:44:00;5.10;80.20
72338;DHT22;60294;64.134;-21.862;2022-09-16T00:46:39;5.20;80.00
72338;DHT22;60294;64.134;-21.862;2022-09-16T00:49:17;5.20;79.70
72338;DHT22;60294;64.134;-21.862;2022-09-16T00:51:47;5.20;79.50
72338;DHT22;60294;64.134;-21.862;2022-09-16T00:54:15;5.20;79.40
72338;DHT22;60294;64.134;-21.862;2022-09-16T00:56:47;5.30;79.40
72338;DHT22;60294;64.134;-21.862;2022-09-16T00:59:18;5.20;79.30
72338;DHT22;60294;64.134;-21.862;2022-09-16T01:01:45;5.20;79.30
72338;DHT22;60294;64.134;-21.862;2022-09-16T01:04:18;5.20;78.90
72338;DHT22;60294;64.134;-21.862;2022-09-16T01:06:47;5.10;78.70
72338;DHT22;60294;64.134;-21.862;2022-09-16T01:09:15;5.10;78.80
72338;DHT22;60294;64.134;-21.862;2022-09-16T01:11:41;5.10;79.00
72338;DHT22;60294;64.134;-21.862;2022-09-16T01:14:07;5.10;79.10
72338;DHT22;60294;64.134;-21.862;2022-09-16T01:17:08;5.00;79.10
72338;DHT22;60294;64.134;-21.862;2022-09-16T01:22:45;4.80;79.50
72338;DHT22;60294;64.134;-21.862;2022-09-16T01:28:24;4.70;80.10
72338;DHT22;60294;64.134;-21.862;2022-09-16T01:36:18;4.60;80.10
72338;DHT22;60294;64.134;-21.862;2022-09-16T01:38:55;4.60;80.20
72338;DHT22;60294;64.134;-21.862;2022-09-16T01:41:30;4.60;80.60
72338;DHT22;60294;64.134;-21.862;2022-09-16T01:44:08;4.50;80.60
72338;DHT22;60294;64.134;-21.862;2022-09-16T01:46:46;4.50;80.70
72338;DHT22;60294;64.134;-21.862;2022-09-16T01:49:46;4.50;80.70
72338;DHT22;60294;64.134;-21.862;2022-09-16T01:55:01;4.50;80.50
72338;DHT22;60294;64.134;-21.862;2022-09-16T01:58:03;4.50;80.50
72338;DHT22;60294;64.134;-21.862;2022-09-16T02:00:32;4.50;80.70
72338;DHT22;60294;64.134;-21.862;2022-09-16T02:03:04;4.40;80.80
72338;DHT22;60294;64.134;-21.862;2022-09-16T02:05:50;4.40;80.90
72338;DHT22;60294;64.134;-21.862;2022-09-16T02:08:41;4.50;80.90
72338;DHT22;60294;64.134;-21.862;2022-09-16T02:11:09;4.40;80.90
72338;DHT22;60294;64.134;-21.862;2022-09-16T02:13:42;4.40;80.70
72338;DHT22;60294;64.134;-21.862;2022-09-16T02:18:55;4.40;81.30
72338;DHT22;60294;64.134;-21.862;2022-09-16T02:21:24;4.50;80.80
72338;DHT22;60294;64.134;-21.862;2022-09-16T02:23:54;4.60;80.80
72338;DHT22;60294;64.134;-21.862;2022-09-16T02:26:27;4.60;80.50
72338;DHT22;60294;64.134;-21.862;2022-09-16T02:28:55;4.60;80.10
72338;DHT22;60294;64.134;-21.862;2022-09-16T02:31:26;4.60;79.90
72338;DHT22;60294;64.134;-21.862;2022-09-16T02:33:56;4.60;79.90
72338;DHT22;60294;64.134;-21.862;2022-09-16T02:36:25;4.60;79.90
72338;DHT22;60294;64.134;-21.862;2022-09-16T02:39:02;4.60;79.40
72338;DHT22;60294;64.134;-21.862;2022-09-16T02:41:29;4.50;79.80
72338;DHT22;60294;64.134;-21.862;2022-09-16T02:43:55;4.40;80.20
72338;DHT22;60294;64.134;-21.862;2022-09-16T02:46:42;4.40;80.20
72338;DHT22;60294;64.134;-21.862;2022-09-16T02:52:03;4.40;80.20
72338;DHT22;60294;64.134;-21.862;2022-09-16T02:54:44;4.40;80.30
72338;DHT22;60294;64.134;-21.862;2022-09-16T02:57:13;4.50;79.90
72338;DHT22;60294;64.134;-21.862;2022-09-16T02:59:39;4.40;80.00
72338;DHT22;60294;64.134;-21.862;2022-09-16T03:02:06;4.30;80.60
72338;DHT22;60294;64.134;-21.862;2022-09-16T03:04:33;4.30;80.80
72338;DHT22;60294;64.134;-21.862;2022-09-16T03:06:59;4.20;81.00
72338;DHT22;60294;64.134;-21.862;2022-09-16T03:09:25;4.10;81.40
72338;DHT22;60294;64.134;-21.862;2022-09-16T03:12:13;4.10;81.40
72338;DHT22;60294;64.134;-21.862;2022-09-16T03:26:10;3.90;82.00
72338;DHT22;60294;64.134;-21.862;2022-09-16T03:29:02;3.80;81.90
72338;DHT22;60294;64.134;-21.862;2022-09-16T03:31:41;3.90;82.00
72338;DHT22;60294;64.134;-21.862;2022-09-16T03:34:32;3.90;81.70
72338;DHT22;60294;64.134;-21.862;2022-09-16T03:37:06;3.80;81.80
72338;DHT22;60294;64.134;-21.862;2022-09-16T03:39:33;3.80;81.90
72338;DHT22;60294;64.134;-21.862;2022-09-16T03:42:01;3.80;82.00
72338;DHT22;60294;64.134;-21.862;2022-09-16T03:44:35;3.70;82.00
72338;DHT22;60294;64.134;-21.862;2022-09-16T03:47:02;3.80;81.90
72338;DHT22;60294;64.134;-21.862;2022-09-16T03:49:28;3.70;82.00
72338;DHT22;60294;64.134;-21.862;2022-09-16T03:51:55;3.70;82.10
72338;DHT22;60294;64.134;-21.862;2022-09-16T03:54:21;3.70;82.20
72338;DHT22;60294;64.134;-21.862;2022-09-16T03:56:47;3.80;82.30
72338;DHT22;60294;64.134;-21.862;2022-09-16T03:59:13;3.80;82.20
72338;DHT22;60294;64.134;-21.862;2022-09-16T04:01:39;3.90;82.20
72338;DHT22;60294;64.134;-21.862;2022-09-16T04:04:04;3.90;81.90
72338;DHT22;60294;64.134;-21.862;2022-09-16T04:06:30;3.90;82.00
72338;DHT22;60294;64.134;-21.862;2022-09-16T04:08:56;3.90;82.10
72338;DHT22;60294;64.134;-21.862;2022-09-16T04:11:23;4.10;82.20
72338;DHT22;60294;64.134;-21.862;2022-09-16T04:13:49;4.10;81.40
72338;DHT22;60294;64.134;-21.862;2022-09-16T04:16:19;4.20;81.10
72338;DHT22;60294;64.134;-21.862;2022-09-16T04:18:48;4.30;81.10
72338;DHT22;60294;64.134;-21.862;2022-09-16T04:21:14;4.30;80.80
72338;DHT22;60294;64.134;-21.862;2022-09-16T04:23:40;4.40;80.80
72338;DHT22;60294;64.134;-21.862;2022-09-16T04:26:06;4.30;80.50
72338;DHT22;60294;64.134;-21.862;2022-09-16T04:28:32;4.40;80.20
72338;DHT22;60294;64.134;-21.862;2022-09-16T04:31:10;4.40;80.00
72338;DHT22;60294;64.134;-21.862;2022-09-16T04:33:37;4.30;79.80
72338;DHT22;60294;64.134;-21.862;2022-09-16T04:36:04;4.20;80.00
72338;DHT22;60294;64.134;-21.862;2022-09-16T04:38:30;4.20;80.20
72338;DHT22;60294;64.134;-21.862;2022-09-16T04:41:08;4.30;80.40
72338;DHT22;60294;64.134;-21.862;2022-09-16T04:43:34;4.30;79.70
72338;DHT22;60294;64.134;-21.862;2022-09-16T04:46:00;4.20;79.70
72338;DHT22;60294;64.134;-21.862;2022-09-16T04:48:27;4.30;80.10
72338;DHT22;60294;64.134;-21.862;2022-09-16T04:50:53;4.20;79.90
72338;DHT22;60294;64.134;-21.862;2022-09-16T04:53:20;4.30;80.00
72338;DHT22;60294;64.134;-21.862;2022-09-16T04:55:46;4.10;79.90
72338;DHT22;60294;64.134;-21.862;2022-09-16T04:58:13;4.10;80.30
72338;DHT22;60294;64.134;-21.862;2022-09-16T05:00:39;4.00;80.30
72338;DHT22;60294;64.134;-21.862;2022-09-16T05:03:05;4.00;80.70
72338;DHT22;60294;64.134;-21.862;2022-09-16T05:05:31;3.90;81.20
72338;DHT22;60294;64.134;-21.862;2022-09-16T05:07:57;3.80;81.80
72338;DHT22;60294;64.134;-21.862;2022-09-16T05:10:22;3.80;81.80
72338;DHT22;60294;64.134;-21.862;2022-09-16T05:12:51;3.60;82.20
72338;DHT22;60294;64.134;-21.862;2022-09-16T05:15:17;3.60;82.40
72338;DHT22;60294;64.134;-21.862;2022-09-16T05:17:43;3.50;82.90
72338;DHT22;60294;64.134;-21.862;2022-09-16T05:20:10;3.50;82.90
72338;DHT22;60294;64.134;-21.862;2022-09-16T05:22:36;3.50;83.10
72338;DHT22;60294;64.134;-21.862;2022-09-16T05:25:02;3.50;82.90
72338;DHT22;60294;64.134;-21.862;2022-09-16T05:27:31;3.50;82.90
72338;DHT22;60294;64.134;-21.862;2022-09-16T05:29:58;3.50;82.80
72338;DHT22;60294;64.134;-21.862;2022-09-16T05:32:24;3.60;83.00
72338;DHT22;60294;64.134;-21.862;2022-09-16T05:34:50;3.60;83.20
72338;DHT22;60294;64.134;-21.862;2022-09-16T05:37:16;3.70;83.30
72338;DHT22;60294;64.134;-21.862;2022-09-16T05:39:42;3.70;82.90
72338;DHT22;60294;64.134;-21.862;2022-09-16T05:42:09;3.80;82.40
72338;DHT22;60294;64.134;-21.862;2022-09-16T05:44:35;3.80;82.40
72338;DHT22;60294;64.134;-21.862;2022-09-16T05:47:01;3.80;81.50
72338;DHT22;60294;64.134;-21.862;2022-09-16T05:49:27;3.80;81.10
72338;DHT22;60294;64.134;-21.862;2022-09-16T05:51:53;3.70;81.10
72338;DHT22;60294;64.134;-21.862;2022-09-16T05:54:19;3.60;81.10
72338;DHT22;60294;64.134;-21.862;2022-09-16T05:56:48;3.60;81.00
72338;DHT22;60294;64.134;-21.862;2022-09-16T05:59:15;3.60;81.00
72338;DHT22;60294;64.134;-21.862;2022-09-16T06:01:42;3.50;81.10
72338;DHT22;60294;64.134;-21.862;2022-09-16T06:04:11;3.50;81.20
72338;DHT22;60294;64.134;-21.862;2022-09-16T06:06:39;3.50;81.30
72338;DHT22;60294;64.134;-21.862;2022-09-16T06:09:14;3.50;81.50
72338;DHT22;60294;64.134;-21.862;2022-09-16T06:11:45;3.50;81.70
72338;DHT22;60294;64.134;-21.862;2022-09-16T06:14:11;3.40;81.60
72338;DHT22;60294;64.134;-21.862;2022-09-16T06:16:38;3.40;81.80
72338;DHT22;60294;64.134;-21.862;2022-09-16T06:19:10;3.50;82.50
72338;DHT22;60294;64.134;-21.862;2022-09-16T06:21:38;3.60;82.50
72338;DHT22;60294;64.134;-21.862;2022-09-16T06:24:04;3.60;82.70
72338;DHT22;60294;64.134;-21.862;2022-09-16T06:26:35;3.60;82.40
72338;DHT22;60294;64.134;-21.862;2022-09-16T06:29:00;3.70;82.40
72338;DHT22;60294;64.134;-21.862;2022-09-16T06:31:27;3.70;82.30
72338;DHT22;60294;64.134;-21.862;2022-09-16T06:33:54;3.80;81.80
72338;DHT22;60294;64.134;-21.862;2022-09-16T06:36:22;3.70;81.50
72338;DHT22;60294;64.134;-21.862;2022-09-16T06:38:49;3.70;81.60
72338;DHT22;60294;64.134;-21.862;2022-09-16T06:41:16;3.60;81.60
72338;DHT22;60294;64.134;-21.862;2022-09-16T06:43:43;3.70;81.80
72338;DHT22;60294;64.134;-21.862;2022-09-16T06:46:12;3.70;81.80
72338;DHT22;60294;64.134;-21.862;2022-09-16T06:48:39;3.80;81.90
72338;DHT22;60294;64.134;-21.862;2022-09-16T06:51:08;3.90;81.30
72338;DHT22;60294;64.134;-21.862;2022-09-16T06:53:35;3.90;81.10
72338;DHT22;60294;64.134;-21.862;2022-09-16T06:56:03;4.00;80.80
72338;DHT22;60294;64.134;-21.862;2022-09-16T06:58:33;4.00;80.00
72338;DHT22;60294;64.134;-21.862;2022-09-16T07:01:07;4.00;79.50
72338;DHT22;60294;64.134;-21.862;2022-09-16T07:03:40;4.00;79.80
72338;DHT22;60294;64.134;-21.862;2022-09-16T07:06:06;4.00;79.40
72338;DHT22;60294;64.134;-21.862;2022-09-16T07:08:34;4.00;78.80
72338;DHT22;60294;64.134;-21.862;2022-09-16T07:11:01;4.00;79.20
72338;DHT22;60294;64.134;-21.862;2022-09-16T07:13:27;4.10;79.00
72338;DHT22;60294;64.134;-21.862;2022-09-16T07:15:53;4.10;78.70
72338;DHT22;60294;64.134;-21.862;2022-09-16T07:18:23;4.10;78.60
72338;DHT22;60294;64.134;-21.862;2022-09-16T07:20:48;4.10;78.20
72338;DHT22;60294;64.134;-21.862;2022-09-16T07:23:14;4.00;78.50
72338;DHT22;60294;64.134;-21.862;2022-09-16T07:25:40;4.00;78.50
72338;DHT22;60294;64.134;-21.862;2022-09-16T07:28:06;4.00;78.50
72338;DHT22;60294;64.134;-21.862;2022-09-16T07:30:32;3.90;78.50
72338;DHT22;60294;64.134;-21.862;2022-09-16T07:32:59;3.90;78.40
72338;DHT22;60294;64.134;-21.862;2022-09-16T07:35:25;3.90;78.40
72338;DHT22;60294;64.134;-21.862;2022-09-16T07:37:51;4.00;78.40
72338;DHT22;60294;64.134;-21.862;2022-09-16T07:40:17;4.10;78.40
72338;DHT22;60294;64.134;-21.862;2022-09-16T07:42:43;4.10;78.30
72338;DHT22;60294;64.134;-21.862;2022-09-16T07:45:09;4.10;78.70
72338;DHT22;60294;64.134;-21.862;2022-09-16T07:47:35;4.30;78.60
72338;DHT22;60294;64.134;-21.862;2022-09-16T07:50:00;4.40;78.60
72338;DHT22;60294;64.134;-21.862;2022-09-16T07:52:26;4.30;78.30
72338;DHT22;60294;64.134;-21.862;2022-09-16T07:54:54;4.40;79.10
72338;DHT22;60294;64.134;-21.862;2022-09-16T07:57:21;4.40;79.00
72338;DHT22;60294;64.134;-21.862;2022-09-16T07:59:47;4.50;79.30
72338;DHT22;60294;64.134;-21.862;2022-09-16T08:02:14;4.50;79.40
72338;DHT22;60294;64.134;-21.862;2022-09-16T08:04:40;4.50;79.10
72338;DHT22;60294;64.134;-21.862;2022-09-16T08:07:05;4.60;78.60
72338;DHT22;60294;64.134;-21.862;2022-09-16T08:09:31;4.60;78.20
72338;DHT22;60294;64.134;-21.862;2022-09-16T08:11:58;4.70;78.60
72338;DHT22;60294;64.134;-21.862;2022-09-16T08:14:26;4.80;78.50
72338;DHT22;60294;64.134;-21.862;2022-09-16T08:16:51;5.00;78.40
72338;DHT22;60294;64.134;-21.862;2022-09-16T08:19:17;5.00;78.40
72338;DHT22;60294;64.134;-21.862;2022-09-16T08:21:45;5.10;78.00
72338;DHT22;60294;64.134;-21.862;2022-09-16T08:24:11;5.10;78.20
72338;DHT22;60294;64.134;-21.862;2022-09-16T08:26:36;5.10;78.60
72338;DHT22;60294;64.134;-21.862;2022-09-16T08:29:03;5.10;78.80
72338;DHT22;60294;64.134;-21.862;2022-09-16T08:31:29;5.20;78.90
72338;DHT22;60294;64.134;-21.862;2022-09-16T08:33:55;5.20;78.90
72338;DHT22;60294;64.134;-21.862;2022-09-16T08:36:23;5.10;79.40
72338;DHT22;60294;64.134;-21.862;2022-09-16T08:38:53;5.10;79.70
72338;DHT22;60294;64.134;-21.862;2022-09-16T08:46:40;5.30;80.00
72338;DHT22;60294;64.134;-21.862;2022-09-16T08:51:47;5.50;80.50
72338;DHT22;60294;64.134;-21.862;2022-09-16T08:57:13;5.60;80.50
72338;DHT22;60294;64.134;-21.862;2022-09-16T08:59:45;5.60;80.50
72338;DHT22;60294;64.134;-21.862;2022-09-16T09:02:39;5.70;80.50
72338;DHT22;60294;64.134;-21.862;2022-09-16T09:05:14;5.80;80.20
72338;DHT22;60294;64.134;-21.862;2022-09-16T09:16:17;6.30;79.90
72338;DHT22;60294;64.134;-21.862;2022-09-16T09:25:00;7.00;78.20
72338;DHT22;60294;64.134;-21.862;2022-09-16T09:30:27;7.40;77.40
72338;DHT22;60294;64.134;-21.862;2022-09-16T09:33:24;7.50;77.30
72338;DHT22;60294;64.134;-21.862;2022-09-16T09:36:34;7.60;77.10
72338;DHT22;60294;64.134;-21.862;2022-09-16T09:47:06;8.10;76.30
72338;DHT22;60294;64.134;-21.862;2022-09-16T09:49:49;8.00;76.80
72338;DHT22;60294;64.134;-21.862;2022-09-16T09:52:46;8.10;77.10
72338;DHT22;60294;64.134;-21.862;2022-09-16T09:55:16;8.10;77.20
72338;DHT22;60294;64.134;-21.862;2022-09-16T10:00:47;8.20;77.30
72338;DHT22;60294;64.134;-21.862;2022-09-16T10:03:15;8.30;77.50
72338;DHT22;60294;64.134;-21.862;2022-09-16T10:05:43;8.40;77.60
72338;DHT22;60294;64.134;-21.862;2022-09-16T10:08:29;8.30;77.60
72338;DHT22;60294;64.134;-21.862;2022-09-16T10:11:01;8.40;77.30
72338;DHT22;60294;64.134;-21.862;2022-09-16T10:13:28;8.40;77.20
72338;DHT22;60294;64.134;-21.862;2022-09-16T10:16:12;8.50;77.90
72338;DHT22;60294;64.134;-21.862;2022-09-16T10:18:38;8.60;77.80
72338;DHT22;60294;64.134;-21.862;2022-09-16T10:21:06;8.60;77.50
72338;DHT22;60294;64.134;-21.862;2022-09-16T10:23:33;8.60;77.40
72338;DHT22;60294;64.134;-21.862;2022-09-16T10:26:20;8.70;77.20
72338;DHT22;60294;64.134;-21.862;2022-09-16T10:29:15;8.70;77.50
72338;DHT22;60294;64.134;-21.862;2022-09-16T10:31:42;8.70;77.40
72338;DHT22;60294;64.134;-21.862;2022-09-16T10:34:36;8.70;77.90
72338;DHT22;60294;64.134;-21.862;2022-09-16T10:37:12;8.80;78.00
72338;DHT22;60294;64.134;-21.862;2022-09-16T10:39:43;8.80;77.90
72338;DHT22;60294;64.134;-21.862;2022-09-16T10:42:27;8.90;78.00
72338;DHT22;60294;64.134;-21.862;2022-09-16T10:45:13;9.00;77.90
72338;DHT22;60294;64.134;-21.862;2022-09-16T10:47:40;9.10;77.80
72338;DHT22;60294;64.134;-21.862;2022-09-16T10:50:17;9.10;77.80
72338;DHT22;60294;64.134;-21.862;2022-09-16T10:52:45;9.10;77.70
72338;DHT22;60294;64.134;-21.862;2022-09-16T10:55:31;9.20;77.20
72338;DHT22;60294;64.134;-21.862;2022-09-16T10:58:26;9.20;76.80
72338;DHT22;60294;64.134;-21.862;2022-09-16T11:14:55;9.50;75.70
72338;DHT22;60294;64.134;-21.862;2022-09-16T11:30:53;9.90;73.20
72338;DHT22;60294;64.134;-21.862;2022-09-16T11:33:27;10.00;73.60
72338;DHT22;60294;64.134;-21.862;2022-09-16T11:38:55;9.90;73.50
72338;DHT22;60294;64.134;-21.862;2022-09-16T11:42:09;9.90;73.90
72338;DHT22;60294;64.134;-21.862;2022-09-16T11:52:52;9.90;75.10
72338;DHT22;60294;64.134;-21.862;2022-09-16T11:57:59;10.00;74.30
72338;DHT22;60294;64.134;-21.862;2022-09-16T12:00:28;10.10;75.00
72338;DHT22;60294;64.134;-21.862;2022-09-16T12:03:10;10.10;74.30
72338;DHT22;60294;64.134;-21.862;2022-09-16T12:05:44;10.20;74.00
72338;DHT22;60294;64.134;-21.862;2022-09-16T12:08:12;10.10;73.60
72338;DHT22;60294;64.134;-21.862;2022-09-16T12:11:18;10.10;73.30
72338;DHT22;60294;64.134;-21.862;2022-09-16T12:14:00;10.10;73.20
72338;DHT22;60294;64.134;-21.862;2022-09-16T12:19:37;10.10;72.20
72338;DHT22;60294;64.134;-21.862;2022-09-16T12:22:35;10.20;71.90
72338;DHT22;60294;64.134;-21.862;2022-09-16T12:27:51;10.50;72.00
72338;DHT22;60294;64.134;-21.862;2022-09-16T12:30:20;10.80;71.80
72338;DHT22;60294;64.134;-21.862;2022-09-16T12:33:20;11.00;70.70
72338;DHT22;60294;64.134;-21.862;2022-09-16T12:36:03;11.00;70.30
72338;DHT22;60294;64.134;-21.862;2022-09-16T12:38:29;11.10;69.90
72338;DHT22;60294;64.134;-21.862;2022-09-16T12:41:24;11.10;69.40
72338;DHT22;60294;64.134;-21.862;2022-09-16T12:44:19;11.20;69.00
72338;DHT22;60294;64.134;-21.862;2022-09-16T12:47:13;11.20;70.10
72338;DHT22;60294;64.134;-21.862;2022-09-16T12:50:00;11.10;69.50
72338;DHT22;60294;64.134;-21.862;2022-09-16T12:52:59;11.50;68.90
72338;DHT22;60294;64.134;-21.862;2022-09-16T13:01:41;12.10;67.30
72338;DHT22;60294;64.134;-21.862;2022-09-16T13:04:27;12.10;66.90
72338;DHT22;60294;64.134;-21.862;2022-09-16T13:06:56;12.10;67.50
72338;DHT22;60294;64.134;-21.862;2022-09-16T13:09:37;12.10;67.60
72338;DHT22;60294;64.134;-21.862;2022-09-16T13:12:24;12.00;67.30
72338;DHT22;60294;64.134;-21.862;2022-09-16T13:14:59;11.70;67.70
72338;DHT22;60294;64.134;-21.862;2022-09-16T13:17:46;11.60;68.50
72338;DHT22;60294;64.134;-21.862;2022-09-16T13:23:07;11.60;68.50
72338;DHT22;60294;64.134;-21.862;2022-09-16T13:33:45;11.60;69.00
72338;DHT22;60294;64.134;-21.862;2022-09-16T13:36:27;11.70;69.00
72338;DHT22;60294;64.134;-21.862;2022-09-16T13:39:00;11.80;69.70
72338;DHT22;60294;64.134;-21.862;2022-09-16T13:41:37;12.10;68.20
72338;DHT22;60294;64.134;-21.862;2022-09-16T13:44:39;12.10;67.80
72338;DHT22;60294;64.134;-21.862;2022-09-16T13:49:56;12.30;67.70
72338;DHT22;60294;64.134;-21.862;2022-09-16T13:52:31;12.60;66.50
72338;DHT22;60294;64.134;-21.862;2022-09-16T13:55:00;12.60;67.30
72338;DHT22;60294;64.134;-21.862;2022-09-16T14:00:22;12.30;67.40
72338;DHT22;60294;64.134;-21.862;2022-09-16T14:11:20;11.90;68.50
72338;DHT22;60294;64.134;-21.862;2022-09-16T14:13:49;11.70;69.10
72338;DHT22;60294;64.134;-21.862;2022-09-16T14:16:20;11.60;69.90
72338;DHT22;60294;64.134;-21.862;2022-09-16T14:19:02;11.60;70.50
72338;DHT22;60294;64.134;-21.862;2022-09-16T14:21:30;11.40;71.00
72338;DHT22;60294;64.134;-21.862;2022-09-16T14:26:37;11.20;72.30
72338;DHT22;60294;64.134;-21.862;2022-09-16T14:29:13;11.40;72.00
72338;DHT22;60294;64.134;-21.862;2022-09-16T14:31:39;11.50;71.90
72338;DHT22;60294;64.134;-21.862;2022-09-16T14:34:16;11.60;71.30
72338;DHT22;60294;64.134;-21.862;2022-09-16T14:36:44;11.50;71.50
72338;DHT22;60294;64.134;-21.862;2022-09-16T14:39:13;11.60;71.70
72338;DHT22;60294;64.134;-21.862;2022-09-16T14:42:04;11.70;70.50
72338;DHT22;60294;64.134;-21.862;2022-09-16T14:44:39;11.80;71.10
72338;DHT22;60294;64.134;-21.862;2022-09-16T14:49:49;12.00;69.90
72338;DHT22;60294;64.134;-21.862;2022-09-16T14:52:24;12.30;69.80
72338;DHT22;60294;64.134;-21.862;2022-09-16T14:54:50;12.50;69.60
72338;DHT22;60294;64.134;-21.862;2022-09-16T14:57:22;12.40;68.90
72338;DHT22;60294;64.134;-21.862;2022-09-16T14:59:50;12.50;68.90
72338;DHT22;60294;64.134;-21.862;2022-09-16T15:02:35;12.40;68.90
72338;DHT22;60294;64.134;-21.862;2022-09-16T15:07:43;12.20;69.70
72338;DHT22;60294;64.134;-21.862;2022-09-16T15:10:26;12.20;70.20
72338;DHT22;60294;64.134;-21.862;2022-09-16T15:13:13;12.10;70.70
72338;DHT22;60294;64.134;-21.862;2022-09-16T15:15:47;12.00;70.70
72338;DHT22;60294;64.134;-21.862;2022-09-16T15:18:22;11.80;71.70
72338;DHT22;60294;64.134;-21.862;2022-09-16T15:20:52;11.90;71.90
72338;DHT22;60294;64.134;-21.862;2022-09-16T15:23:25;11.80;72.00
72338;DHT22;60294;64.134;-21.862;2022-09-16T15:25:57;12.10;72.20
72338;DHT22;60294;64.134;-21.862;2022-09-16T15:28:24;11.80;71.90
72338;DHT22;60294;64.134;-21.862;2022-09-16T15:30:52;11.70;72.40
72338;DHT22;60294;64.134;-21.862;2022-09-16T15:33:32;11.60;73.00
72338;DHT22;60294;64.134;-21.862;2022-09-16T15:35:59;11.60;73.20
72338;DHT22;60294;64.134;-21.862;2022-09-16T15:38:26;11.20;75.60
72338;DHT22;60294;64.134;-21.862;2022-09-16T15:41:10;11.40;75.40
72338;DHT22;60294;64.134;-21.862;2022-09-16T15:43:45;11.40;75.40
72338;DHT22;60294;64.134;-21.862;2022-09-16T15:46:29;11.40;75.20
72338;DHT22;60294;64.134;-21.862;2022-09-16T15:49:00;11.40;76.50
72338;DHT22;60294;64.134;-21.862;2022-09-16T15:51:38;11.20;78.00
72338;DHT22;60294;64.134;-21.862;2022-09-16T15:54:22;11.00;80.60
72338;DHT22;60294;64.134;-21.862;2022-09-16T15:56:55;10.70;81.80
72338;DHT22;60294;64.134;-21.862;2022-09-16T15:59:32;10.60;83.00
72338;DHT22;60294;64.134;-21.862;2022-09-16T16:02:03;10.40;83.30
72338;DHT22;60294;64.134;-21.862;2022-09-16T16:04:31;10.30;84.00
72338;DHT22;60294;64.134;-21.862;2022-09-16T16:07:02;10.30;84.30
72338;DHT22;60294;64.134;-21.862;2022-09-16T16:09:29;10.60;83.30
72338;DHT22;60294;64.134;-21.862;2022-09-16T16:12:02;10.50;82.70
72338;DHT22;60294;64.134;-21.862;2022-09-16T16:14:30;10.50;83.40
72338;DHT22;60294;64.134;-21.862;2022-09-16T16:17:15;10.50;83.10
72338;DHT22;60294;64.134;-21.862;2022-09-16T16:19:43;10.60;83.00
72338;DHT22;60294;64.134;-21.862;2022-09-16T16:22:10;10.60;81.20
72338;DHT22;60294;64.134;-21.862;2022-09-16T16:24:37;10.60;82.00
72338;DHT22;60294;64.134;-21.862;2022-09-16T16:27:03;10.70;81.90
72338;DHT22;60294;64.134;-21.862;2022-09-16T16:29:29;10.90;81.50
72338;DHT22;60294;64.134;-21.862;2022-09-16T16:32:09;11.00;81.20
72338;DHT22;60294;64.134;-21.862;2022-09-16T16:34:43;11.20;80.40
72338;DHT22;60294;64.134;-21.862;2022-09-16T16:37:11;11.50;79.30
72338;DHT22;60294;64.134;-21.862;2022-09-16T16:39:39;11.60;78.60
72338;DHT22;60294;64.134;-21.862;2022-09-16T16:42:05;11.60;77.90
72338;DHT22;60294;64.134;-21.862;2022-09-16T16:44:33;11.50;77.90
72338;DHT22;60294;64.134;-21.862;2022-09-16T16:47:00;11.60;78.30
72338;DHT22;60294;64.134;-21.862;2022-09-16T16:49:26;11.60;77.90
72338;DHT22;60294;64.134;-21.862;2022-09-16T16:51:52;11.50;77.90
72338;DHT22;60294;64.134;-21.862;2022-09-16T16:54:23;11.40;78.50
72338;DHT22;60294;64.134;-21.862;2022-09-16T16:56:49;11.20;79.20
72338;DHT22;60294;64.134;-21.862;2022-09-16T16:59:16;11.00;78.80
72338;DHT22;60294;64.134;-21.862;2022-09-16T17:01:43;11.10;79.30
72338;DHT22;60294;64.134;-21.862;2022-09-16T17:04:10;10.90;78.70
72338;DHT22;60294;64.134;-21.862;2022-09-16T17:06:36;10.90;78.90
72338;DHT22;60294;64.134;-21.862;2022-09-16T17:09:07;10.70;77.90
72338;DHT22;60294;64.134;-21.862;2022-09-16T17:11:34;10.80;78.20
72338;DHT22;60294;64.134;-21.862;2022-09-16T17:14:05;10.80;78.30
72338;DHT22;60294;64.134;-21.862;2022-09-16T17:16:32;10.70;78.60
72338;DHT22;60294;64.134;-21.862;2022-09-16T17:19:00;10.80;78.50
72338;DHT22;60294;64.134;-21.862;2022-09-16T17:21:28;10.70;77.90
72338;DHT22;60294;64.134;-21.862;2022-09-16T17:23:54;10.80;78.30
72338;DHT22;60294;64.134;-21.862;2022-09-16T17:26:21;10.70;78.70
72338;DHT22;60294;64.134;-21.862;2022-09-16T17:28:48;10.60;79.20
72338;DHT22;60294;64.134;-21.862;2022-09-16T17:31:23;10.50;78.20
72338;DHT22;60294;64.134;-21.862;2022-09-16T17:33:53;10.50;79.20
72338;DHT22;60294;64.134;-21.862;2022-09-16T17:36:19;10.50;79.00
72338;DHT22;60294;64.134;-21.862;2022-09-16T17:38:48;10.40;79.40
72338;DHT22;60294;64.134;-21.862;2022-09-16T17:41:15;10.50;79.30
72338;DHT22;60294;64.134;-21.862;2022-09-16T17:43:42;10.50;79.30
72338;DHT22;60294;64.134;-21.862;2022-09-16T17:46:13;10.50;79.10
72338;DHT22;60294;64.134;-21.862;2022-09-16T17:48:40;10.40;79.20
72338;DHT22;60294;64.134;-21.862;2022-09-16T17:51:07;10.40;79.30
72338;DHT22;60294;64.134;-21.862;2022-09-16T17:53:34;10.50;79.70
72338;DHT22;60294;64.134;-21.862;2022-09-16T17:56:09;10.60;77.90
72338;DHT22;60294;64.134;-21.862;2022-09-16T17:58:37;10.60;77.70
72338;DHT22;60294;64.134;-21.862;2022-09-16T18:01:14;10.80;77.40
72338;DHT22;60294;64.134;-21.862;2022-09-16T18:03:42;10.90;77.10
72338;DHT22;60294;64.134;-21.862;2022-09-16T18:06:19;11.00;76.60
72338;DHT22;60294;64.134;-21.862;2022-09-16T18:08:46;11.00;76.60
72338;DHT22;60294;64.134;-21.862;2022-09-16T18:11:13;10.90;76.40
72338;DHT22;60294;64.134;-21.862;2022-09-16T18:13:39;10.90;76.40
72338;DHT22;60294;64.134;-21.862;2022-09-16T18:16:14;11.00;76.30